Time;durP1;ratioP1;P1;durP2;ratioP2;P2;SDS_P1;SDS_P2;PMS_P1;PMS_P2;Temp;Humidity;BMP_temperature;BMP_pressure;BME280_temperature;BME280_humidity;BME280_pressure;Samples;Min_cycle;Max_cycle;Signal;HPM_P1;HPM_P2
2023/09/24 00:02:19;;;;;;;;;14.33;13.33;;;;;;;;5041041;28;45361;-73
2023/09/24 00:04:44;;;;;;;;;10.67;10.00;;;;;;;;5041051;28;45315;-73
2023/09/24 00:07:10;;;;;;;;;11.33;11.00;;;;;;;;5040649;28;45303;-74
2023/09/24 00:09:35;;;;;;;;;12.00;12.00;;;;;;;;5040448;28;45322;-73
2023/09/24 00:12:01;;;;;;;;;10.67;9.67;;;;;;;;5040886;28;45209;-73
2023/09/24 00:14:30;;;;;;;;;11.33;11.33;;;;;;;;5040900;28;45464;-74
2023/09/24 00:16:55;;;;;;;;;10.33;10.33;;;;;;;;5040776;28;45276;-73
2023/09/24 00:19:21;;;;;;;;;11.00;11.00;;;;;;;;5040604;28;45318;-73
2023/09/24 00:21:46;;;;;;;;;13.33;11.67;;;;;;;;5055988;28;45952;-73
2023/09/24 00:24:12;;;;;;;;;12.33;12.33;;;;;;;;5040791;28;45374;-73
2023/09/24 00:26:38;;;;;;;;;11.00;10.33;;;;;;;;5040118;28;45348;-73
2023/09/24 00:29:04;;;;;;;;;13.67;13.00;;;;;;;;5033834;28;45352;-74
2023/09/24 00:31:30;;;;;;;;;9.33;7.33;;;;;;;;5020617;28;45277;-73
2023/09/24 00:33:55;;;;;;;;;14.00;11.67;;;;;;;;5020765;28;45337;-73
2023/09/24 00:36:21;;;;;;;;;13.33;11.00;;;;;;;;5018849;28;46119;-73
2023/09/24 00:38:47;;;;;;;;;10.00;10.00;;;;;;;;5020375;28;46188;-73
2023/09/24 00:41:13;;;;;;;;;11.67;11.33;;;;;;;;5020171;28;45282;-74
2023/09/24 00:43:39;;;;;;;;;13.00;11.67;;;;;;;;5020484;28;45362;-73
2023/09/24 00:46:04;;;;;;;;;9.00;9.00;;;;;;;;5018962;28;46138;-73
2023/09/24 00:48:31;;;;;;;;;10.67;9.67;;;;;;;;5020315;28;45307;-73
2023/09/24 00:51:04;;;;;;;;;11.67;11.00;;;;;;;;5022043;28;45404;-73
2023/09/24 00:53:30;;;;;;;;;12.00;11.33;;;;;;;;5039967;28;45246;-73
2023/09/24 00:55:56;;;;;;;;;8.67;8.67;;;;;;;;5037535;28;45724;-73
2023/09/24 00:58:23;;;;;;;;;9.67;9.00;;;;;;;;5040093;28;45403;-73
2023/09/24 01:00:49;;;;;;;;;9.00;8.00;;;;;;;;5039745;28;45369;-73
2023/09/24 01:03:16;;;;;;;;;10.00;9.00;;;;;;;;5040109;28;45749;-73
2023/09/24 01:05:41;;;;;;;;;12.67;11.33;;;;;;;;5038255;28;46241;-73
2023/09/24 01:08:07;;;;;;;;;9.67;9.67;;;;;;;;5039699;28;45835;-73
2023/09/24 01:10:32;;;;;;;;;12.00;10.33;;;;;;;;5055157;28;45287;-73
2023/09/24 01:12:59;;;;;;;;;8.00;7.67;;;;;;;;5040016;28;45333;-73
2023/09/24 01:15:25;;;;;;;;;8.00;8.00;;;;;;;;5039969;28;45315;-73
2023/09/24 01:17:52;;;;;;;;;9.00;9.00;;;;;;;;5039185;28;45307;-73
2023/09/24 01:20:21;;;;;;;;;10.00;9.67;;;;;;;;5039354;28;45355;-73
2023/09/24 01:22:46;;;;;;;;;8.67;8.67;;;;;;;;5039331;28;45235;-75
2023/09/24 01:25:11;;;;;;;;;8.67;8.33;;;;;;;;5038733;28;45309;-73
2023/09/24 01:27:36;;;;;;;;;10.67;9.00;;;;;;;;5039555;28;45243;-73
2023/09/24 01:30:06;;;;;;;;;13.33;11.00;;;;;;;;5039189;28;45271;-73
2023/09/24 01:32:31;;;;;;;;;10.67;9.33;;;;;;;;5039378;28;45370;-73
2023/09/24 01:34:56;;;;;;;;;8.00;8.00;;;;;;;;5038058;28;47093;-73
2023/09/24 01:37:21;;;;;;;;;6.00;6.00;;;;;;;;5037928;28;47312;-73
2023/09/24 01:39:47;;;;;;;;;10.67;10.67;;;;;;;;5039380;28;45358;-73
2023/09/24 01:42:13;;;;;;;;;15.00;12.00;;;;;;;;5039628;28;45472;-73
2023/09/24 01:44:40;;;;;;;;;8.33;8.33;;;;;;;;5039466;28;45286;-73
2023/09/24 01:47:05;;;;;;;;;8.33;7.33;;;;;;;;5039357;28;45358;-73
2023/09/24 01:49:31;;;;;;;;;10.00;10.00;;;;;;;;5039332;28;45350;-73
2023/09/24 01:51:57;;;;;;;;;10.33;10.00;;;;;;;;5039420;28;45224;-73
2023/09/24 01:54:24;;;;;;;;;10.67;8.33;;;;;;;;5037952;28;47144;-73
2023/09/24 01:56:49;;;;;;;;;10.33;9.00;;;;;;;;5039052;28;45239;-73
2023/09/24 01:59:15;;;;;;;;;8.33;8.33;;;;;;;;5054463;28;45346;-73
2023/09/24 02:01:40;;;;;;;;;9.00;9.00;;;;;;;;5039386;28;45331;-73
2023/09/24 02:04:05;;;;;;;;;9.33;9.33;;;;;;;;5039275;28;45494;-74
2023/09/24 02:06:34;;;;;;;;;7.00;7.00;;;;;;;;5039247;28;45290;-73
2023/09/24 02:09:01;;;;;;;;;8.67;8.67;;;;;;;;5039938;28;45979;-73
2023/09/24 02:11:27;;;;;;;;;5.67;5.67;;;;;;;;5042767;28;45171;-73
2023/09/24 02:13:52;;;;;;;;;8.00;8.00;;;;;;;;5042609;28;45377;-73
2023/09/24 02:16:17;;;;;;;;;8.67;8.67;;;;;;;;5041141;28;47587;-73
2023/09/24 02:18:43;;;;;;;;;8.67;8.67;;;;;;;;5042614;28;45303;-73
2023/09/24 02:21:14;;;;;;;;;9.00;7.33;;;;;;;;5041277;28;45280;-73
2023/09/24 02:23:40;;;;;;;;;10.00;9.33;;;;;;;;5042581;28;45310;-73
2023/09/24 02:26:05;;;;;;;;;10.00;9.00;;;;;;;;5040645;28;47205;-74
2023/09/24 02:28:31;;;;;;;;;9.00;9.00;;;;;;;;5042347;28;45452;-73
2023/09/24 02:30:57;;;;;;;;;9.33;9.33;;;;;;;;5042503;28;45238;-73
2023/09/24 02:33:22;;;;;;;;;11.67;10.00;;;;;;;;5041094;28;47503;-73
2023/09/24 02:35:49;;;;;;;;;9.00;8.67;;;;;;;;5042228;28;45421;-73
2023/09/24 02:38:14;;;;;;;;;9.00;8.00;;;;;;;;5041006;28;45287;-75
2023/09/24 02:40:40;;;;;;;;;11.00;11.00;;;;;;;;5042075;28;45294;-73
2023/09/24 02:43:05;;;;;;;;;8.33;8.00;;;;;;;;5042261;28;45391;-73
2023/09/24 02:45:30;;;;;;;;;8.67;8.00;;;;;;;;5042130;28;46104;-73
2023/09/24 02:47:56;;;;;;;;;11.33;10.00;;;;;;;;5042037;28;45390;-73
2023/09/24 02:50:23;;;;;;;;;9.33;8.00;;;;;;;;5042190;28;45360;-73
2023/09/24 02:52:49;;;;;;;;;8.00;8.00;;;;;;;;5042086;28;45471;-73
2023/09/24 02:55:15;;;;;;;;;10.67;9.33;;;;;;;;5040330;28;46024;-73
2023/09/24 02:57:41;;;;;;;;;6.00;6.00;;;;;;;;5042012;28;45259;-73
2023/09/24 03:00:20;;;;;;;;;9.00;9.00;;;;;;;;5042007;28;45196;-73
2023/09/24 03:02:46;;;;;;;;;8.67;8.67;;;;;;;;5041939;28;45306;-73
2023/09/24 03:05:12;;;;;;;;;9.33;8.67;;;;;;;;5040424;28;47116;-73
2023/09/24 03:07:38;;;;;;;;;8.67;7.67;;;;;;;;5041777;28;45382;-73
2023/09/24 03:10:06;;;;;;;;;9.67;7.33;;;;;;;;5040240;28;45359;-73
2023/09/24 03:12:32;;;;;;;;;10.00;10.00;;;;;;;;5041721;28;45475;-73
2023/09/24 03:14:57;;;;;;;;;8.00;8.00;;;;;;;;5040201;28;47429;-74
2023/09/24 03:17:23;;;;;;;;;8.00;8.00;;;;;;;;5041767;28;45288;-73
2023/09/24 03:19:48;;;;;;;;;6.67;5.00;;;;;;;;5041373;28;45485;-73
2023/09/24 03:22:13;;;;;;;;;7.00;6.00;;;;;;;;5041319;28;45331;-73
2023/09/24 03:24:38;;;;;;;;;6.33;6.33;;;;;;;;5039983;28;46048;-73
2023/09/24 03:27:03;;;;;;;;;7.00;7.00;;;;;;;;5039818;28;46229;-73
2023/09/24 03:29:28;;;;;;;;;6.00;6.00;;;;;;;;5031622;28;45350;-73
2023/09/24 03:31:54;;;;;;;;;8.33;8.33;;;;;;;;5021478;28;45561;-73
2023/09/24 03:34:19;;;;;;;;;7.33;6.67;;;;;;;;5036616;28;48296;-73
2023/09/24 03:36:45;;;;;;;;;5.00;5.00;;;;;;;;5021385;28;45336;-73
2023/09/24 03:39:10;;;;;;;;;7.67;7.00;;;;;;;;5021376;28;45315;-73
2023/09/24 03:41:35;;;;;;;;;8.00;8.00;;;;;;;;5021157;28;45633;-73
2023/09/24 03:44:00;;;;;;;;;6.00;6.00;;;;;;;;5021401;28;46434;-73
2023/09/24 03:46:26;;;;;;;;;8.00;8.00;;;;;;;;5021425;28;45506;-73
2023/09/24 03:48:52;;;;;;;;;8.67;7.00;;;;;;;;5021339;28;45307;-74
2023/09/24 03:51:17;;;;;;;;;7.33;6.67;;;;;;;;5021130;28;45314;-73
2023/09/24 03:53:42;;;;;;;;;8.00;8.00;;;;;;;;5021261;28;45393;-73
2023/09/24 03:56:08;;;;;;;;;7.33;7.33;;;;;;;;5020973;28;45266;-74
2023/09/24 03:58:33;;;;;;;;;7.67;7.67;;;;;;;;5021324;28;45397;-73
2023/09/24 04:01:06;;;;;;;;;6.00;6.00;;;;;;;;5036352;28;45884;-73
2023/09/24 04:03:32;;;;;;;;;6.00;6.00;;;;;;;;5019629;28;47214;-73
2023/09/24 04:05:57;;;;;;;;;6.00;6.00;;;;;;;;5020955;28;45310;-73
2023/09/24 04:08:22;;;;;;;;;7.67;7.67;;;;;;;;5021050;28;45379;-74
2023/09/24 04:10:47;;;;;;;;;8.00;8.00;;;;;;;;5020713;28;45339;-73
2023/09/24 04:13:13;;;;;;;;;6.33;6.33;;;;;;;;5020876;28;45326;-73
2023/09/24 04:15:38;;;;;;;;;9.33;6.00;;;;;;;;5020757;28;45301;-73
2023/09/24 04:18:03;;;;;;;;;6.67;6.67;;;;;;;;5021085;28;45454;-73
2023/09/24 04:20:31;;;;;;;;;6.67;6.67;;;;;;;;5020674;28;45240;-73
2023/09/24 04:22:57;;;;;;;;;9.00;7.67;;;;;;;;5020767;28;45351;-73
2023/09/24 04:25:24;;;;;;;;;7.67;6.33;;;;;;;;5020228;28;45300;-73
2023/09/24 04:27:49;;;;;;;;;7.67;7.67;;;;;;;;5021000;28;45301;-74
2023/09/24 04:30:17;;;;;;;;;7.67;7.00;;;;;;;;5047765;28;46409;-74
2023/09/24 04:32:43;;;;;;;;;8.67;8.67;;;;;;;;5020215;28;45417;-73
2023/09/24 04:35:10;;;;;;;;;7.33;7.33;;;;;;;;5020512;28;45229;-73
2023/09/24 04:37:35;;;;;;;;;6.00;6.00;;;;;;;;5019203;28;45312;-73
2023/09/24 04:40:01;;;;;;;;;6.00;6.00;;;;;;;;5020300;28;45327;-73
2023/09/24 04:42:26;;;;;;;;;7.33;7.33;;;;;;;;5020289;28;45486;-73
2023/09/24 04:44:51;;;;;;;;;7.33;6.33;;;;;;;;5019064;28;45926;-73
2023/09/24 04:47:16;;;;;;;;;7.00;7.00;;;;;;;;5020698;28;45312;-73
2023/09/24 04:49:42;;;;;;;;;7.00;7.00;;;;;;;;5020210;28;45272;-73
2023/09/24 04:52:07;;;;;;;;;6.67;6.67;;;;;;;;5020202;28;45366;-73
2023/09/24 04:54:32;;;;;;;;;6.00;6.00;;;;;;;;5018841;28;45256;-73
2023/09/24 04:56:57;;;;;;;;;7.33;6.00;;;;;;;;5020486;28;45450;-74
2023/09/24 04:59:22;;;;;;;;;6.00;6.00;;;;;;;;5028516;28;45493;-73
2023/09/24 05:01:48;;;;;;;;;6.00;5.67;;;;;;;;5038490;28;47351;-73
2023/09/24 05:04:13;;;;;;;;;10.00;9.00;;;;;;;;5039972;28;45328;-73
2023/09/24 05:06:38;;;;;;;;;8.67;7.00;;;;;;;;5038654;28;45372;-73
2023/09/24 05:09:03;;;;;;;;;8.00;6.33;;;;;;;;5039875;28;45554;-73
2023/09/24 05:11:29;;;;;;;;;6.33;5.67;;;;;;;;5039761;28;46188;-73
2023/09/24 05:13:54;;;;;;;;;6.33;6.33;;;;;;;;5038617;28;45289;-74
2023/09/24 05:16:21;;;;;;;;;5.00;5.00;;;;;;;;5040131;28;45288;-74
2023/09/24 05:18:46;;;;;;;;;6.33;5.33;;;;;;;;5039636;28;45314;-74
2023/09/24 05:21:15;;;;;;;;;7.67;6.00;;;;;;;;5039656;28;45486;-74
2023/09/24 05:23:40;;;;;;;;;6.67;6.67;;;;;;;;5038026;28;46356;-74
2023/09/24 05:26:09;;;;;;;;;5.00;5.00;;;;;;;;5039502;28;45283;-74
2023/09/24 05:28:34;;;;;;;;;6.00;6.00;;;;;;;;5037083;28;45476;-74
2023/09/24 05:30:59;;;;;;;;;5.00;5.00;;;;;;;;5018380;28;47231;-73
2023/09/24 05:33:24;;;;;;;;;8.33;5.00;;;;;;;;5019816;28;45323;-73
2023/09/24 05:35:51;;;;;;;;;6.00;6.00;;;;;;;;5025009;28;45272;-73
2023/09/24 05:38:17;;;;;;;;;5.67;5.67;;;;;;;;5037573;28;46094;-74
2023/09/24 05:40:42;;;;;;;;;4.33;4.33;;;;;;;;5038534;28;46435;-73
2023/09/24 05:43:08;;;;;;;;;6.00;6.00;;;;;;;;5039270;28;45480;-74
2023/09/24 05:45:33;;;;;;;;;4.00;4.00;;;;;;;;5039163;28;45392;-74
2023/09/24 05:47:58;;;;;;;;;8.00;6.67;;;;;;;;5039278;28;45425;-73
2023/09/24 05:50:24;;;;;;;;;5.00;5.00;;;;;;;;5038923;28;46243;-73
2023/09/24 05:52:49;;;;;;;;;4.33;4.33;;;;;;;;5039415;28;45540;-73
2023/09/24 05:55:14;;;;;;;;;5.00;5.00;;;;;;;;5039421;28;45411;-73
2023/09/24 05:57:39;;;;;;;;;5.00;5.00;;;;;;;;5039275;28;45397;-73
2023/09/24 06:00:05;;;;;;;;;5.33;5.00;;;;;;;;5039123;28;45419;-73
2023/09/24 06:02:30;;;;;;;;;8.00;7.00;;;;;;;;5039339;28;45353;-73
2023/09/24 06:04:55;;;;;;;;;6.33;6.33;;;;;;;;5038004;28;45388;-73
2023/09/24 06:07:21;;;;;;;;;6.00;6.00;;;;;;;;5037900;28;46235;-73
2023/09/24 06:09:46;;;;;;;;;8.33;7.67;;;;;;;;5038744;28;45974;-73
2023/09/24 06:12:11;;;;;;;;;7.00;5.00;;;;;;;;5039217;28;45539;-73
2023/09/24 06:14:36;;;;;;;;;6.67;6.67;;;;;;;;5039280;28;45334;-74
2023/09/24 06:17:03;;;;;;;;;6.00;6.00;;;;;;;;5039102;28;45287;-74
2023/09/24 06:19:28;;;;;;;;;6.00;6.00;;;;;;;;5039010;28;45663;-73
2023/09/24 06:21:54;;;;;;;;;7.67;7.67;;;;;;;;5038893;28;45277;-72
2023/09/24 06:24:20;;;;;;;;;7.67;6.00;;;;;;;;5039044;28;45377;-74
2023/09/24 06:26:45;;;;;;;;;2.00;1.67;;;;;;;;5038737;28;45306;-73
2023/09/24 06:29:11;;;;;;;;;7.33;6.00;;;;;;;;5037253;28;46890;-73
2023/09/24 06:31:36;;;;;;;;;6.33;6.33;;;;;;;;5038186;28;45489;-73
2023/09/24 06:34:02;;;;;;;;;8.33;8.33;;;;;;;;5038297;28;45261;-76
2023/09/24 06:36:27;;;;;;;;;7.00;6.00;;;;;;;;5035890;28;46123;-75
2023/09/24 06:38:52;;;;;;;;;5.67;5.67;;;;;;;;5036814;28;47211;-75
2023/09/24 06:41:17;;;;;;;;;7.00;7.00;;;;;;;;5038723;28;45337;-75
2023/09/24 06:43:43;;;;;;;;;6.00;6.00;;;;;;;;5038967;28;45349;-75
2023/09/24 06:46:08;;;;;;;;;6.67;6.67;;;;;;;;5038639;28;45572;-75
2023/09/24 06:48:33;;;;;;;;;9.00;8.00;;;;;;;;5037180;28;48246;-75
2023/09/24 06:51:05;;;;;;;;;8.00;7.33;;;;;;;;5038656;28;45298;-76
2023/09/24 06:53:30;;;;;;;;;8.00;7.33;;;;;;;;5037548;28;45312;-76
2023/09/24 06:55:57;;;;;;;;;8.00;8.00;;;;;;;;5041796;28;45512;-77
2023/09/24 06:58:22;;;;;;;;;9.33;9.00;;;;;;;;5040635;28;47257;-78
2023/09/24 07:00:47;;;;;;;;;9.33;9.00;;;;;;;;5041427;28;45402;-77
2023/09/24 07:03:12;;;;;;;;;6.00;6.00;;;;;;;;5040722;28;45387;-76
2023/09/24 07:05:37;;;;;;;;;7.33;7.00;;;;;;;;5040365;28;45787;-79
2023/09/24 07:08:03;;;;;;;;;6.33;6.33;;;;;;;;5041727;28;46320;-77
2023/09/24 07:10:29;;;;;;;;;6.33;6.00;;;;;;;;5040254;28;45372;-78
2023/09/24 07:12:54;;;;;;;;;8.00;7.67;;;;;;;;5041467;28;45276;-78
2023/09/24 07:15:19;;;;;;;;;7.67;7.67;;;;;;;;5040163;28;47240;-75
2023/09/24 07:17:44;;;;;;;;;8.67;7.67;;;;;;;;5041416;28;46029;-76
2023/09/24 07:20:10;;;;;;;;;9.00;9.00;;;;;;;;5040705;28;45327;-75
2023/09/24 07:22:35;;;;;;;;;12.67;10.00;;;;;;;;5041559;28;45399;-76
2023/09/24 07:25:00;;;;;;;;;8.00;8.00;;;;;;;;5041398;28;45385;-75
2023/09/24 07:27:26;;;;;;;;;12.33;10.33;;;;;;;;5056917;28;48391;-75
2023/09/24 07:29:52;;;;;;;;;10.33;9.00;;;;;;;;5028157;28;45411;-76
2023/09/24 07:32:17;;;;;;;;;6.33;6.33;;;;;;;;5021707;28;45410;-75
2023/09/24 07:34:46;;;;;;;;;7.67;7.00;;;;;;;;5025674;28;45902;-76
2023/09/24 07:37:11;;;;;;;;;11.00;8.67;;;;;;;;5021338;28;45462;-77
2023/09/24 07:39:36;;;;;;;;;6.33;6.33;;;;;;;;5021271;28;45294;-76
2023/09/24 07:42:01;;;;;;;;;8.00;8.00;;;;;;;;5021490;28;45282;-75
2023/09/24 07:44:27;;;;;;;;;11.33;10.33;;;;;;;;5021290;28;45474;-76
2023/09/24 07:46:52;;;;;;;;;9.67;9.33;;;;;;;;5021237;28;45334;-74
2023/09/24 07:49:17;;;;;;;;;10.00;9.00;;;;;;;;5021099;28;45414;-75
2023/09/24 07:51:43;;;;;;;;;11.00;10.67;;;;;;;;5020045;28;45281;-74
2023/09/24 07:54:09;;;;;;;;;10.67;10.67;;;;;;;;5020980;28;45326;-75
2023/09/24 07:56:34;;;;;;;;;14.67;13.00;;;;;;;;5033809;28;46109;-75
2023/09/24 07:59:02;;;;;;;;;15.33;13.67;;;;;;;;5040556;28;45419;-74
2023/09/24 08:01:27;;;;;;;;;13.67;12.33;;;;;;;;5041321;28;45361;-75
2023/09/24 08:03:52;;;;;;;;;14.67;13.00;;;;;;;;5040583;28;45480;-74
2023/09/24 08:06:18;;;;;;;;;14.00;13.00;;;;;;;;5037975;28;47053;-74
2023/09/24 08:08:43;;;;;;;;;16.00;14.67;;;;;;;;5040795;28;45485;-75
2023/09/24 08:11:08;;;;;;;;;17.67;15.67;;;;;;;;5038993;28;45282;-75
2023/09/24 08:13:34;;;;;;;;;17.67;16.00;;;;;;;;5040847;28;45291;-75
2023/09/24 08:15:59;;;;;;;;;15.00;12.00;;;;;;;;5039250;28;48294;-74
2023/09/24 08:18:24;;;;;;;;;10.67;9.67;;;;;;;;5040426;28;45386;-75
2023/09/24 08:20:50;;;;;;;;;9.33;9.33;;;;;;;;5034471;28;50080;-75
2023/09/24 08:23:17;;;;;;;;;5.00;5.00;;;;;;;;5021310;28;45342;-74
2023/09/24 08:25:42;;;;;;;;;6.33;6.33;;;;;;;;5039336;28;46010;-74
2023/09/24 08:28:09;;;;;;;;;6.00;4.33;;;;;;;;5021429;28;45378;-75
2023/09/24 08:30:35;;;;;;;;;4.00;3.67;;;;;;;;5039206;28;45235;-74
2023/09/24 08:33:01;;;;;;;;;5.00;5.00;;;;;;;;5039921;28;45414;-74
2023/09/24 08:35:26;;;;;;;;;7.00;4.67;;;;;;;;5039625;28;45272;-74
2023/09/24 08:37:52;;;;;;;;;7.00;6.00;;;;;;;;5039390;28;45236;-74
2023/09/24 08:40:17;;;;;;;;;4.00;3.33;;;;;;;;5039615;28;45251;-75
2023/09/24 08:42:50;;;;;;;;;5.00;4.33;;;;;;;;5039697;28;45554;-74
2023/09/24 08:45:18;;;;;;;;;6.67;4.00;;;;;;;;5036293;28;46088;-75
2023/09/24 08:47:44;;;;;;;;;7.33;5.00;;;;;;;;5027305;28;45375;-74
2023/09/24 08:50:09;;;;;;;;;4.67;4.67;;;;;;;;5036108;28;45498;-74
2023/09/24 08:52:39;;;;;;;;;4.00;4.00;;;;;;;;5034738;28;45452;-77
2023/09/24 08:55:09;;;;;;;;;4.00;4.00;;;;;;;;5038685;28;45849;-73
2023/09/24 08:57:35;;;;;;;;;4.33;4.33;;;;;;;;5039225;28;45355;-73
2023/09/24 09:00:00;;;;;;;;;8.00;6.00;;;;;;;;5037743;28;45474;-73
2023/09/24 09:02:26;;;;;;;;;4.67;4.33;;;;;;;;5038777;28;45219;-73
2023/09/24 09:04:51;;;;;;;;;6.33;5.67;;;;;;;;5039006;28;45259;-74
2023/09/24 09:07:17;;;;;;;;;4.00;4.00;;;;;;;;5038246;28;45409;-74
2023/09/24 09:09:59;;;;;;;;;4.00;4.00;;;;;;;;5038340;28;45414;-75
2023/09/24 09:12:25;;;;;;;;;3.00;3.00;;;;;;;;5037777;28;45224;-74
2023/09/24 09:14:51;;;;;;;;;2.33;2.33;;;;;;;;5036568;28;48172;-76
2023/09/24 09:17:16;;;;;;;;;2.00;2.00;;;;;;;;5038017;28;45349;-76
2023/09/24 09:19:47;;;;;;;;;3.00;3.00;;;;;;;;5037750;28;45344;-76
2023/09/24 09:22:17;;;;;;;;;3.67;3.67;;;;;;;;5038102;28;45541;-75
2023/09/24 09:24:42;;;;;;;;;4.00;4.00;;;;;;;;5038514;28;45481;-74
2023/09/24 09:27:07;;;;;;;;;6.00;4.00;;;;;;;;5036857;28;45253;-75
2023/09/24 09:29:32;;;;;;;;;4.67;4.00;;;;;;;;5038246;28;45267;-74
2023/09/24 09:31:58;;;;;;;;;4.33;4.00;;;;;;;;5038503;28;45314;-74
2023/09/24 09:34:23;;;;;;;;;5.67;5.67;;;;;;;;5038241;28;45389;-75
2023/09/24 09:36:49;;;;;;;;;6.00;4.67;;;;;;;;5050050;28;45606;-76
2023/09/24 09:39:14;;;;;;;;;11.00;11.00;;;;;;;;5035375;28;45497;-75
2023/09/24 09:41:42;;;;;;;;;5.00;5.00;;;;;;;;5038709;28;45359;-75
2023/09/24 09:44:07;;;;;;;;;9.00;7.67;;;;;;;;5037670;28;46051;-76
2023/09/24 09:46:33;;;;;;;;;9.00;7.00;;;;;;;;5034991;28;45970;-75
2023/09/24 09:49:04;;;;;;;;;8.33;5.33;;;;;;;;5035967;28;45283;-77
2023/09/24 09:51:33;;;;;;;;;4.00;3.00;;;;;;;;5037263;28;46088;-75
2023/09/24 09:54:04;;;;;;;;;4.00;2.00;;;;;;;;5038488;28;45461;-75
2023/09/24 09:56:29;;;;;;;;;5.67;4.67;;;;;;;;5038752;28;45476;-78
2023/09/24 09:58:55;;;;;;;;;8.00;5.33;;;;;;;;5038512;28;45703;-75
2023/09/24 10:01:20;;;;;;;;;8.33;5.00;;;;;;;;5037623;28;45978;-76
2023/09/24 10:03:47;;;;;;;;;3.00;1.67;;;;;;;;5038363;28;45334;-75
2023/09/24 10:06:13;;;;;;;;;11.67;8.00;;;;;;;;5037288;28;46177;-75
2023/09/24 10:08:39;;;;;;;;;6.00;6.00;;;;;;;;5037646;28;45380;-76
2023/09/24 10:11:04;;;;;;;;;5.00;2.00;;;;;;;;5038315;28;45547;-75
2023/09/24 10:13:40;;;;;;;;;2.00;2.00;;;;;;;;5038456;28;45307;-75
2023/09/24 10:16:26;;;;;;;;;2.00;2.00;;;;;;;;5039102;28;45220;-76
2023/09/24 10:18:54;;;;;;;;;2.00;1.00;;;;;;;;5027716;28;45311;-76
2023/09/24 10:21:30;;;;;;;;;2.00;1.00;;;;;;;;5036212;28;45536;-76
2023/09/24 10:23:56;;;;;;;;;2.67;1.00;;;;;;;;5037980;28;46260;-76
2023/09/24 10:26:40;;;;;;;;;2.00;2.00;;;;;;;;5037372;28;45406;-77
2023/09/24 10:29:05;;;;;;;;;4.00;4.00;;;;;;;;5038299;28;45381;-76
2023/09/24 10:31:32;;;;;;;;;1.67;1.67;;;;;;;;5040802;28;45479;-76
2023/09/24 10:34:02;;;;;;;;;0.67;0.67;;;;;;;;5042175;28;46156;-77
2023/09/24 10:36:30;;;;;;;;;2.67;2.67;;;;;;;;5041181;28;45390;-75
2023/09/24 10:39:12;;;;;;;;;8.00;5.33;;;;;;;;5040934;28;45356;-76
2023/09/24 10:41:56;;;;;;;;;5.00;5.00;;;;;;;;5042242;28;45806;-76
2023/09/24 10:44:25;;;;;;;;;3.00;3.00;;;;;;;;5042123;28;45402;-76
2023/09/24 10:46:51;;;;;;;;;3.33;1.67;;;;;;;;5042154;28;45313;-76
2023/09/24 10:49:17;;;;;;;;;3.67;1.67;;;;;;;;5042262;28;45307;-76
2023/09/24 10:51:42;;;;;;;;;3.33;2.00;;;;;;;;5040662;28;46011;-76
2023/09/24 10:54:14;;;;;;;;;2.00;2.00;;;;;;;;5040898;28;45443;-75
2023/09/24 10:56:39;;;;;;;;;2.00;2.00;;;;;;;;5041317;28;45508;-78
2023/09/24 10:59:05;;;;;;;;;1.50;1.50;;;;;;;;5041381;28;45535;-76
2023/09/24 11:01:30;;;;;;;;;0.75;0.75;;;;;;;;5057497;28;46187;-76
2023/09/24 11:03:56;;;;;;;;;2.00;1.00;;;;;;;;5039546;28;48202;-75
2023/09/24 11:06:31;;;;;;;;;3.00;2.50;;;;;;;;5041352;28;45286;-76
2023/09/24 11:09:12;;;;;;;;;1.00;0.00;;;;;;;;5040386;28;45347;-77
2023/09/24 11:11:38;;;;;;;;;2.00;1.00;;;;;;;;5041921;28;45351;-77
2023/09/24 11:14:20;;;;;;;;;2.33;2.00;;;;;;;;5023820;28;47006;-76
2023/09/24 11:16:45;;;;;;;;;3.00;2.00;;;;;;;;5040496;28;45332;-77
2023/09/24 11:19:11;;;;;;;;;2.00;0.75;;;;;;;;5041825;28;45350;-75
2023/09/24 11:21:36;;;;;;;;;2.25;0.50;;;;;;;;5041529;28;45530;-75
2023/09/24 11:24:16;;;;;;;;;1.75;1.75;;;;;;;;5041407;28;45406;-76
2023/09/24 11:26:41;;;;;;;;;1.50;1.00;;;;;;;;5041493;28;45375;-75
2023/09/24 11:29:09;;;;;;;;;2.75;2.75;;;;;;;;5029471;28;47684;-75
2023/09/24 11:31:34;;;;;;;;;2.00;2.00;;;;;;;;5037965;28;46383;-75
2023/09/24 11:34:00;;;;;;;;;2.75;2.75;;;;;;;;5039434;28;46197;-76
2023/09/24 11:36:28;;;;;;;;;3.00;1.25;;;;;;;;5039414;28;45391;-75
2023/09/24 11:39:03;;;;;;;;;1.00;1.00;;;;;;;;5040975;28;45366;-76
2023/09/24 11:41:28;;;;;;;;;1.75;1.00;;;;;;;;5040199;28;45516;-75
2023/09/24 11:43:59;;;;;;;;;1.00;1.00;;;;;;;;5039948;28;46162;-75
2023/09/24 11:46:32;;;;;;;;;3.25;3.25;;;;;;;;5039465;28;45420;-75
2023/09/24 11:49:01;;;;;;;;;2.00;2.00;;;;;;;;5040174;28;45371;-76
2023/09/24 11:51:26;;;;;;;;;5.00;5.00;;;;;;;;5039855;28;45916;-76
2023/09/24 11:53:51;;;;;;;;;6.00;6.00;;;;;;;;5040487;28;46276;-75
2023/09/24 11:56:17;;;;;;;;;4.25;3.00;;;;;;;;5040474;28;45464;-75
2023/09/24 11:58:42;;;;;;;;;2.00;2.00;;;;;;;;5040044;28;45262;-76
2023/09/24 12:01:09;;;;;;;;;1.75;1.75;;;;;;;;5038656;28;47247;-75
2023/09/24 12:03:35;;;;;;;;;3.00;3.00;;;;;;;;5039362;28;46251;-76
2023/09/24 12:06:00;;;;;;;;;1.00;1.00;;;;;;;;5040462;28;45404;-76
2023/09/24 12:08:25;;;;;;;;;1.75;1.75;;;;;;;;5040321;28;45385;-75
2023/09/24 12:10:51;;;;;;;;;0.75;0.75;;;;;;;;5040185;28;45432;-75
2023/09/24 12:13:18;;;;;;;;;2.00;2.00;;;;;;;;5038942;28;46020;-76
2023/09/24 12:15:43;;;;;;;;;2.00;2.00;;;;;;;;5040050;28;45354;-76
2023/09/24 12:18:09;;;;;;;;;1.00;1.00;;;;;;;;5040378;28;45472;-76
2023/09/24 12:20:35;;;;;;;;;1.00;1.00;;;;;;;;5040032;28;45397;-75
2023/09/24 12:23:02;;;;;;;;;0.75;0.75;;;;;;;;5039952;28;45523;-76
2023/09/24 12:25:28;;;;;;;;;1.00;1.00;;;;;;;;5038770;28;45362;-76
2023/09/24 12:27:53;;;;;;;;;2.50;2.00;;;;;;;;5038454;28;45330;-76
2023/09/24 12:30:18;;;;;;;;;2.75;2.75;;;;;;;;5023317;28;45582;-76
2023/09/24 12:32:43;;;;;;;;;5.50;5.50;;;;;;;;5026339;28;45414;-76
2023/09/24 12:35:11;;;;;;;;;3.50;2.50;;;;;;;;5033284;28;45661;-75
2023/09/24 12:37:37;;;;;;;;;1.00;1.00;;;;;;;;5039456;28;45383;-75
2023/09/24 12:40:07;;;;;;;;;2.00;2.00;;;;;;;;5055192;28;46076;-76
2023/09/24 12:42:36;;;;;;;;;4.00;3.75;;;;;;;;5039157;28;45907;-76
2023/09/24 12:45:02;;;;;;;;;29.33;27.67;;;;;;;;5037868;28;45411;-78
2023/09/24 12:47:33;;;;;;;;;2.00;1.75;;;;;;;;5038608;28;45658;-78
2023/09/24 12:49:59;;;;;;;;;2.75;2.75;;;;;;;;5039625;28;45668;-78
2023/09/24 12:52:25;;;;;;;;;3.00;2.00;;;;;;;;5037708;28;45921;-77
2023/09/24 12:54:50;;;;;;;;;2.00;2.00;;;;;;;;5038819;28;45807;-77
2023/09/24 12:57:15;;;;;;;;;2.75;2.00;;;;;;;;5038351;28;45417;-78
2023/09/24 12:59:40;;;;;;;;;2.00;2.00;;;;;;;;5039920;28;45354;-77
2023/09/24 13:02:06;;;;;;;;;1.00;1.00;;;;;;;;5041386;28;45463;-78
2023/09/24 13:04:33;;;;;;;;;2.25;2.25;;;;;;;;5039637;28;45325;-79
2023/09/24 13:06:59;;;;;;;;;2.00;2.00;;;;;;;;5037865;28;45346;-80
2023/09/24 13:09:24;;;;;;;;;2.00;2.00;;;;;;;;5038753;28;45409;-84
2023/09/24 13:11:49;;;;;;;;;0.00;0.00;;;;;;;;5040190;28;46175;-82
2023/09/24 13:14:14;;;;;;;;;2.75;2.75;;;;;;;;5040125;28;45214;-80
2023/09/24 13:16:44;;;;;;;;;1.00;1.00;;;;;;;;5040182;28;45574;-79
2023/09/24 13:19:11;;;;;;;;;0.50;0.50;;;;;;;;5039584;28;45477;-81
2023/09/24 13:21:37;;;;;;;;;1.75;1.75;;;;;;;;5040083;28;46179;-83
2023/09/24 13:24:02;;;;;;;;;2.00;1.00;;;;;;;;5042379;28;45302;-85
2023/09/24 13:26:27;;;;;;;;;1.00;1.00;;;;;;;;5040572;28;45429;-82
2023/09/24 13:28:53;;;;;;;;;1.00;1.00;;;;;;;;5037906;28;46287;-80
2023/09/24 13:31:18;;;;;;;;;2.00;2.00;;;;;;;;5039524;28;46147;-82
2023/09/24 13:33:43;;;;;;;;;1.00;1.00;;;;;;;;5054661;28;45441;-81
2023/09/24 13:36:10;;;;;;;;;3.50;2.25;;;;;;;;5039086;28;45449;-82
2023/09/24 13:38:36;;;;;;;;;1.75;1.75;;;;;;;;5037399;28;46996;-80
2023/09/24 13:41:01;;;;;;;;;2.50;2.00;;;;;;;;5038879;28;45280;-83
2023/09/24 13:43:26;;;;;;;;;1.00;1.00;;;;;;;;5039379;28;45260;-83
2023/09/24 13:45:51;;;;;;;;;2.00;2.00;;;;;;;;5055413;28;45563;-83
2023/09/24 13:48:16;;;;;;;;;3.50;3.50;;;;;;;;5039886;28;45485;-79
2023/09/24 13:50:47;;;;;;;;;0.50;0.50;;;;;;;;5039205;28;45375;-82
2023/09/24 13:53:12;;;;;;;;;1.00;1.00;;;;;;;;5038141;28;45421;-81
2023/09/24 13:55:37;;;;;;;;;1.50;1.50;;;;;;;;5039176;28;45247;-81
2023/09/24 13:58:03;;;;;;;;;1.00;1.00;;;;;;;;5039177;28;45301;-84
2023/09/24 14:00:29;;;;;;;;;1.75;1.75;;;;;;;;5038870;28;45333;-84
2023/09/24 14:02:54;;;;;;;;;2.00;2.00;;;;;;;;5039632;28;45129;-83
2023/09/24 14:05:19;;;;;;;;;1.25;1.25;;;;;;;;5041015;28;45375;-81
2023/09/24 14:07:44;;;;;;;;;1.00;1.00;;;;;;;;5041715;28;47146;-82
2023/09/24 14:12:54;;;;;;;;;2.25;2.25;;;;;;;;5041714;28;45395;-77
2023/09/24 14:15:19;;;;;;;;;3.25;2.75;;;;;;;;5041921;28;45443;-78
2023/09/24 14:17:44;;;;;;;;;2.00;2.00;;;;;;;;5041994;28;45204;-80
2023/09/24 14:20:11;;;;;;;;;1.00;1.00;;;;;;;;5040437;28;45309;-81
2023/09/24 14:22:37;;;;;;;;;2.00;1.00;;;;;;;;5041148;28;46081;-80
2023/09/24 14:25:03;;;;;;;;;2.00;2.00;;;;;;;;5042666;28;45303;-80
2023/09/24 14:27:28;;;;;;;;;3.00;1.50;;;;;;;;5041180;28;46014;-81
2023/09/24 14:29:53;;;;;;;;;2.00;2.00;;;;;;;;5028912;28;46280;-80
2023/09/24 14:32:18;;;;;;;;;1.00;1.00;;;;;;;;5022619;28;45260;-80
2023/09/24 14:34:43;;;;;;;;;0.00;0.00;;;;;;;;5022784;28;45496;-79
2023/09/24 14:37:10;;;;;;;;;2.25;2.25;;;;;;;;5022362;28;45374;-81